Time;durP1;ratioP1;P1;durP2;ratioP2;P2;SDS_P1;SDS_P2;PMS_P1;PMS_P2;Temp;Humidity;BMP_temperature;BMP_pressure;BME280_temperature;BME280_humidity;BME280_pressure;Samples;Min_cycle;Max_cycle;Signal;HPM_P1;HPM_P2
2022/02/18 00:00:27;;;;;;;0.20;0.00;;;11.40;99.90;;;;;;25330907;23;20176;-67
2022/02/18 00:10:31;;;;;;;0.20;0.10;;;11.00;99.90;;;;;;25329941;23;20227;-67
2022/02/18 00:20:36;;;;;;;0.20;0.10;;;11.00;99.90;;;;;;25328522;23;20176;-65
2022/02/18 00:30:40;;;;;;;0.20;0.10;;;10.80;99.90;;;;;;25327331;23;20188;-68
2022/02/18 00:40:46;;;;;;;0.20;0.10;;;11.10;99.90;;;;;;25327346;23;20215;-66
2022/02/18 00:50:50;;;;;;;0.20;0.00;;;10.90;99.90;;;;;;25327365;23;20211;-66
2022/02/18 01:00:55;;;;;;;0.20;0.10;;;10.90;99.90;;;;;;25328489;23;20160;-66
2022/02/18 01:10:59;;;;;;;0.20;0.10;;;10.80;99.90;;;;;;25328499;23;20187;-65
2022/02/18 01:21:04;;;;;;;0.20;0.00;;;10.60;99.90;;;;;;25327937;23;20699;-65
2022/02/18 01:31:08;;;;;;;0.20;0.10;;;10.60;99.90;;;;;;25327119;23;20191;-65
2022/02/18 01:41:14;;;;;;;0.20;0.00;;;10.20;99.90;;;;;;25325948;23;20188;-66
2022/02/18 01:51:19;;;;;;;0.20;0.00;;;10.40;99.90;;;;;;25326703;23;20204;-76
2022/02/18 02:01:25;;;;;;;0.20;0.00;;;10.10;99.90;;;;;;25326429;23;20163;-76
2022/02/18 02:11:28;;;;;;;0.20;0.10;;;10.20;99.90;;;;;;25325672;23;20180;-76
2022/02/18 02:21:34;;;;;;;0.20;0.10;;;10.20;99.90;;;;;;25326416;23;20175;-74
2022/02/18 02:31:39;;;;;;;0.20;0.10;;;9.90;99.90;;;;;;25325880;23;20191;-78
2022/02/18 02:41:43;;;;;;;0.30;0.30;;;9.90;99.90;;;;;;25326002;23;20184;-79
2022/02/18 02:51:48;;;;;;;0.20;0.07;;;9.80;99.90;;;;;;25325665;23;20208;-78
2022/02/18 03:01:52;;;;;;;0.20;0.10;;;9.60;99.90;;;;;;25332206;23;20172;-76
2022/02/18 03:11:57;;;;;;;1.43;1.43;;;9.70;99.90;;;;;;25333570;23;20196;-76
2022/02/18 03:22:01;;;;;;;0.20;0.00;;;9.60;99.90;;;;;;25333236;23;20652;-80
2022/02/18 03:32:08;;;;;;;0.20;0.00;;;9.80;99.90;;;;;;25332547;23;20195;-78
2022/02/18 03:42:11;;;;;;;0.20;0.10;;;9.90;99.90;;;;;;25332590;23;20192;-76
2022/02/18 03:52:17;;;;;;;0.20;0.10;;;9.20;99.90;;;;;;25331641;23;20184;-80
2022/02/18 04:02:20;;;;;;;0.20;0.10;;;9.30;99.90;;;;;;25332192;23;20168;-80
2022/02/18 04:12:25;;;;;;;0.20;0.00;;;9.40;99.90;;;;;;25331000;23;20199;-80
2022/02/18 04:22:29;;;;;;;0.20;0.10;;;9.00;99.90;;;;;;25330440;23;20663;-78
2022/02/18 04:32:35;;;;;;;0.20;0.00;;;9.30;99.90;;;;;;25328673;23;20188;-66
2022/02/18 04:42:39;;;;;;;0.20;0.00;;;9.40;99.90;;;;;;25329581;23;20199;-67
2022/02/18 04:52:44;;;;;;;0.20;0.10;;;9.70;99.90;;;;;;25327941;23;20211;-65
2022/02/18 05:02:50;;;;;;;0.20;0.00;;;9.40;99.90;;;;;;25326668;23;20172;-66
2022/02/18 05:12:55;;;;;;;0.20;0.10;;;9.50;99.90;;;;;;25325936;23;20191;-67
2022/02/18 05:22:59;;;;;;;0.20;0.03;;;9.50;99.90;;;;;;25325799;23;20179;-68
2022/02/18 05:33:04;;;;;;;0.20;0.10;;;9.30;99.90;;;;;;25325397;23;20191;-68
2022/02/18 05:43:08;;;;;;;0.20;0.10;;;9.10;99.90;;;;;;25324495;23;20192;-66
2022/02/18 05:53:13;;;;;;;0.20;0.00;;;9.20;99.90;;;;;;25325082;23;20200;-65
2022/02/18 06:03:17;;;;;;;0.20;0.10;;;9.40;99.90;;;;;;25325087;23;20168;-65
2022/02/18 06:13:22;;;;;;;0.20;0.00;;;9.30;99.90;;;;;;25322999;23;20187;-65
2022/02/18 06:23:26;;;;;;;0.20;0.00;;;9.20;99.90;;;;;;25321899;23;20246;-65
2022/02/18 06:33:31;;;;;;;0.20;0.10;;;9.20;99.90;;;;;;25326462;23;20226;-65
2022/02/18 06:43:35;;;;;;;0.20;0.10;;;9.30;99.90;;;;;;25327659;23;20704;-67
2022/02/18 06:53:40;;;;;;;0.20;0.00;;;9.70;99.90;;;;;;25325947;23;20219;-64
2022/02/18 07:03:44;;;;;;;0.20;0.10;;;9.80;99.90;;;;;;25321540;23;20188;-66
2022/02/18 07:13:49;;;;;;;0.20;0.10;;;10.00;99.90;;;;;;25319889;23;20196;-65
2022/02/18 07:23:53;;;;;;;0.20;0.00;;;9.70;99.90;;;;;;25326523;23;20178;-66
2022/02/18 07:33:58;;;;;;;0.20;0.00;;;10.10;99.90;;;;;;25327541;23;20211;-66
2022/02/18 07:44:02;;;;;;;0.20;0.10;;;10.50;99.90;;;;;;25326419;23;20212;-66
2022/02/18 07:54:08;;;;;;;0.20;0.10;;;11.20;99.90;;;;;;25298850;23;20219;-66
2022/02/18 08:04:12;;;;;;;0.20;0.10;;;11.80;99.90;;;;;;25301173;23;20195;-66
2022/02/18 08:14:17;;;;;;;0.20;0.00;;;12.60;99.90;;;;;;25324032;23;20192;-66
2022/02/18 08:24:22;;;;;;;0.20;0.10;;;13.00;99.90;;;;;;25322897;23;20175;-66
2022/02/18 08:34:27;;;;;;;0.20;0.00;;;13.30;99.90;;;;;;25320111;23;20196;-65
2022/02/18 08:44:31;;;;;;;0.20;0.07;;;13.50;99.90;;;;;;25323321;23;20208;-65
2022/02/18 08:54:38;;;;;;;0.20;0.00;;;13.70;99.90;;;;;;25322842;23;20211;-67
2022/02/18 09:04:42;;;;;;;0.20;0.00;;;14.00;99.90;;;;;;25319917;23;20157;-68
2022/02/18 09:14:47;;;;;;;0.83;0.80;;;14.20;99.90;;;;;;25320726;23;20188;-67
2022/02/18 09:24:51;;;;;;;0.73;0.73;;;14.10;99.90;;;;;;25319088;23;20183;-67
2022/02/18 09:34:58;;;;;;;0.20;0.10;;;14.20;99.90;;;;;;25318636;23;20219;-67
2022/02/18 09:45:04;;;;;;;0.20;0.00;;;14.30;99.90;;;;;;25319179;23;20254;-70
2022/02/18 09:55:09;;;;;;;0.20;0.10;;;14.80;99.90;;;;;;25319038;23;20244;-67
2022/02/18 10:05:14;;;;;;;0.20;0.00;;;15.20;99.90;;;;;;25316833;23;20231;-67
2022/02/18 10:15:19;;;;;;;0.20;0.10;;;15.50;99.90;;;;;;25310453;23;20211;-67
2022/02/18 10:25:25;;;;;;;0.30;0.30;;;15.40;99.90;;;;;;25311734;23;20212;-68
2022/02/18 10:35:33;;;;;;;0.20;0.10;;;15.50;99.90;;;;;;25318678;23;20196;-65
2022/02/18 10:45:51;;;;;;;0.20;0.20;;;15.70;99.90;;;;;;25316707;23;20204;-67
2022/02/18 10:55:57;;;;;;;0.20;0.10;;;16.30;99.90;;;;;;25319884;23;20207;-66
2022/02/18 11:06:19;;;;;;;0.20;0.00;;;16.90;99.90;;;;;;25321546;23;20163;-68
2022/02/18 11:16:27;;;;;;;0.20;0.10;;;17.30;99.90;;;;;;25321834;23;20215;-68
2022/02/18 11:26:33;;;;;;;0.20;0.10;;;17.60;99.90;;;;;;25327050;23;20164;-69
2022/02/18 11:37:34;;;;;;;0.20;0.00;;;18.00;99.90;;;;;;25325121;23;20187;-68
2022/02/18 11:47:38;;;;;;;0.20;0.13;;;18.10;99.90;;;;;;25074069;23;20202;-65
2022/02/18 11:57:57;;;;;;;0.87;0.43;;;17.80;99.90;;;;;;25295916;23;20212;-65
2022/02/18 12:08:00;;;;;;;0.43;0.43;;;18.40;99.90;;;;;;25323355;23;20168;-69
2022/02/18 12:18:09;;;;;;;0.20;0.00;;;18.10;99.90;;;;;;25322155;23;20196;-70
2022/02/18 12:28:23;;;;;;;0.20;0.00;;;18.90;99.90;;;;;;25314131;23;20228;-66
2022/02/18 12:38:28;;;;;;;0.20;0.20;;;19.30;99.90;;;;;;25318095;23;20204;-66
2022/02/18 12:48:34;;;;;;;0.20;0.10;;;19.60;99.90;;;;;;25316971;23;20207;-68
2022/02/18 12:58:39;;;;;;;0.20;0.00;;;20.10;99.90;;;;;;25320567;23;20188;-69
2022/02/18 13:08:43;;;;;;;0.20;0.10;;;20.00;99.90;;;;;;25321312;23;20172;-65
2022/02/18 13:18:55;;;;;;;0.20;0.10;;;19.90;99.90;;;;;;25321590;23;20632;-65
2022/02/18 13:29:00;;;;;;;0.20;0.10;;;20.50;99.90;;;;;;25316698;23;20167;-68
2022/02/18 13:39:26;;;;;;;0.20;0.00;;;20.20;99.90;;;;;;25310192;23;20220;-68
2022/02/18 13:49:31;;;;;;;0.20;0.03;;;20.80;99.90;;;;;;25316945;23;20216;-67
2022/02/18 13:59:37;;;;;;;0.20;0.10;;;21.00;99.90;;;;;;25320381;23;20196;-66
2022/02/18 14:09:43;;;;;;;0.20;0.10;;;21.30;99.90;;;;;;25317770;23;20176;-67
2022/02/18 14:19:51;;;;;;;0.20;0.00;;;21.80;99.90;;;;;;25320007;23;20176;-67
2022/02/18 14:29:57;;;;;;;0.20;0.10;;;22.50;99.90;;;;;;25317701;23;20168;-67
2022/02/18 14:40:20;;;;;;;0.20;0.10;;;22.00;99.90;;;;;;25319602;23;20199;-67
2022/02/18 14:50:26;;;;;;;0.20;0.00;;;22.00;99.90;;;;;;25321625;23;20221;-67
2022/02/18 15:00:33;;;;;;;0.20;0.10;;;22.50;99.90;;;;;;25328401;23;20183;-68
2022/02/18 15:10:37;;;;;;;0.20;0.00;;;22.30;99.90;;;;;;25325157;23;20192;-69
2022/02/18 15:20:43;;;;;;;0.30;0.30;;;21.50;99.90;;;;;;25322391;23;20179;-68
2022/02/18 15:51:36;;;;;;;0.20;0.10;;;20.80;99.90;;;;;;25319178;23;20219;-67
2022/02/18 16:01:43;;;;;;;0.20;0.10;;;19.70;99.90;;;;;;25319413;23;20172;-67
2022/02/18 16:11:58;;;;;;;0.20;0.10;;;19.50;99.90;;;;;;25314895;23;20196;-69
2022/02/18 16:22:05;;;;;;;0.20;0.00;;;19.30;99.90;;;;;;25313961;23;20228;-68
2022/02/18 16:32:10;;;;;;;0.20;0.10;;;18.10;99.90;;;;;;25313511;23;20575;-68
2022/02/18 16:42:16;;;;;;;0.20;0.00;;;17.30;99.90;;;;;;25318309;23;20267;-67
2022/02/18 16:52:19;;;;;;;0.20;0.00;;;16.60;99.90;;;;;;25316820;23;20200;-69
2022/02/18 17:02:25;;;;;;;0.20;0.10;;;15.90;99.90;;;;;;25316202;23;20897;-68
2022/02/18 17:12:30;;;;;;;0.20;0.00;;;15.50;99.90;;;;;;25314697;23;20211;-67
2022/02/18 17:22:36;;;;;;;0.20;0.10;;;15.00;99.90;;;;;;25313135;23;20171;-69
2022/02/18 17:32:40;;;;;;;0.20;0.00;;;14.80;99.90;;;;;;25314179;23;20192;-67
2022/02/18 17:42:46;;;;;;;0.20;0.00;;;14.80;99.90;;;;;;25315429;23;20188;-66
2022/02/18 17:52:50;;;;;;;0.20;0.00;;;14.80;99.90;;;;;;25313065;23;20211;-67
2022/02/18 18:02:55;;;;;;;2.10;2.00;;;14.80;99.90;;;;;;25314625;23;20217;-66
2022/02/18 18:12:59;;;;;;;0.20;0.00;;;14.80;99.90;;;;;;25314810;23;20187;-66
2022/02/18 18:23:04;;;;;;;0.20;0.00;;;14.70;99.90;;;;;;25315095;23;20175;-65
2022/02/18 18:33:08;;;;;;;0.20;0.10;;;14.60;99.90;;;;;;25298274;23;20195;-66
2022/02/18 18:43:13;;;;;;;0.20;0.00;;;14.10;99.90;;;;;;25322931;23;20198;-65
2022/02/18 18:53:18;;;;;;;0.20;0.00;;;14.20;99.90;;;;;;25324140;23;20200;-67
2022/02/18 19:03:23;;;;;;;0.20;0.00;;;13.90;99.90;;;;;;25321094;23;20164;-67
2022/02/18 19:13:27;;;;;;;0.87;0.87;;;14.00;99.90;;;;;;25320654;23;20250;-66
2022/02/18 19:23:32;;;;;;;0.33;0.20;;;13.90;99.90;;;;;;25322502;23;20179;-66
2022/02/18 19:33:36;;;;;;;0.20;0.10;;;13.90;99.90;;;;;;25320144;23;20204;-66
2022/02/18 19:43:41;;;;;;;0.20;0.00;;;13.90;99.90;;;;;;25321749;23;20200;-66
2022/02/18 20:43:10;;;;;;;0.20;0.10;;;13.80;99.90;;;;;;25204359;23;20196;-68
2022/02/18 20:53:14;;;;;;;0.20;0.20;;;14.00;99.90;;;;;;25199015;23;20185;-68
2022/02/18 21:03:20;;;;;;;0.27;0.27;;;14.30;99.90;;;;;;25203277;23;20180;-67
2022/02/18 21:13:23;;;;;;;0.20;0.00;;;14.40;99.90;;;;;;25203656;23;20200;-69
2022/02/18 21:23:28;;;;;;;0.20;0.00;;;14.20;99.90;;;;;;25205196;23;20160;-67
2022/02/18 21:33:33;;;;;;;0.20;0.10;;;14.20;99.90;;;;;;25177808;23;20208;-67
2022/02/18 21:43:39;;;;;;;0.20;0.10;;;14.40;99.90;;;;;;25202656;23;20189;-67
2022/02/18 21:53:43;;;;;;;0.20;0.00;;;14.50;99.90;;;;;;25203064;23;20196;-68
2022/02/18 22:03:48;;;;;;;0.20;0.00;;;14.60;99.90;;;;;;25203943;23;20165;-67
2022/02/18 22:13:52;;;;;;;0.20;0.00;;;14.30;99.90;;;;;;25204001;23;20188;-67
2022/02/18 22:23:57;;;;;;;0.20;0.10;;;14.10;99.90;;;;;;25203475;23;20199;-67
2022/02/18 22:34:01;;;;;;;0.20;0.00;;;14.00;99.90;;;;;;25201788;23;20224;-66
2022/02/18 22:44:07;;;;;;;0.20;0.00;;;13.90;99.90;;;;;;25202980;23;20189;-66
2022/02/18 22:54:11;;;;;;;0.20;0.00;;;14.00;99.90;;;;;;25202820;23;20189;-67
2022/02/18 23:04:16;;;;;;;0.20;0.10;;;13.90;99.90;;;;;;25203649;23;20173;-67
2022/02/18 23:14:20;;;;;;;0.20;0.10;;;13.60;99.90;;;;;;25206974;23;20193;-67
2022/02/18 23:24:25;;;;;;;0.20;0.00;;;13.70;99.90;;;;;;25211244;23;20180;-67
2022/02/18 23:34:28;;;;;;;0.20;0.10;;;13.30;99.90;;;;;;25210755;23;20200;-67
2022/02/18 23:44:34;;;;;;;0.20;0.10;;;13.10;99.90;;;;;;25211492;23;20185;-65
2022/02/18 23:54:38;;;;;;;0.20;0.10;;;13.00;99.90;;;;;;25186241;23;20196;-66
